Pratica Di Mare, Italy

3:50 PM CET on December 19, 2014 (GMT +0100)
Torvajanica Alta, Pomezia | Change Station
CLOSE
Current Station
Personal Weather Station
Location: Torvaianica Alta, LAZIO
Elevation: 128 ft
Nearby Weather Stations

Elev 128 ft 41.63 °N, 12.49 °E | Updated 7 seconds ago

Clear
Clear
59.9 °F
Feels Like 59.9 °F
N
4.7
Wind Variable Wind from West
Gusts 6.5 mph

Today
High -- | Low -- °F
--% Chance of Precip.
Yesterday
High -- | Low -- °F
Precip. -- in
7:32 AM 4:42 PM
Waning Crescent, 7% visible
Pressure 30.24 in
Visibility -9999.0 miles
Clouds
Dew Point 49 °F
Humidity 68%
Rainfall 0.00 in
Snow Depth Not available.
UV Not available.
Pollen Not available.
Air Quality Not available.
Flu Activity Not available.
METAR LIRF 191420Z 26005KT CAVOK 15/10 Q1024 NOSIG

More Conditions Fewer Conditions

Pressure 30.24 in
Visibility -9999.0 miles
Clouds
Dew Point 49 °F
Humidity 68%
Rainfall 0.00 in
Snow Depth Not available.
UV Not available.
Pollen Not available.
Air Quality Not available.
Flu Activity Not available.
METAR LIRF 191420Z 26005KT CAVOK 15/10 Q1024 NOSIG

More Conditions Fewer Conditions

10-Day Weather Forecast

Almanac

Astronomy

Dec. 19, 2014 Rise Set
Actual Time
Civil Twilight
Nautical Twilight
Astronomical Twilight
Moon
Length of Visible Light
Length of Day
Tomorrow will be .
, % of the Moon is Illuminated

Today's Extremes

Country Highs Country Lows

Community

WunderPhotos

Upload Photos

1,778,988 photos uploaded!

WunderBlogs® & News

Nearby

Air Quality

  Air Quality AQ Index Pollutant
Not available.

Snow Depth

Station Depth Elevation

Earthquake Activity

City Distance Mag. Time & Date
Minimum magnitude displayed is 2.5.

Coastal Water Temperatures

Place Temperature

Nearby Weather Stations